createdAt,value
2022-08-08T00:00:55.475Z,21.34
2022-08-08T00:02:31.216Z,21.28
2022-08-08T00:04:38.211Z,21.25
2022-08-08T00:07:13.073Z,21.20
2022-08-08T00:09:27.638Z,21.16
2022-08-08T00:11:47.155Z,21.12
2022-08-08T00:14:16.714Z,21.06
2022-08-08T00:16:56.908Z,20.98
2022-08-08T00:19:13.228Z,20.95
2022-08-08T00:21:23.167Z,20.90
2022-08-08T00:23:43.548Z,20.85
2022-08-08T00:25:56.429Z,20.80
2022-08-08T00:28:01.458Z,20.76
2022-08-08T00:30:11.395Z,20.72
2022-08-08T00:32:35.055Z,20.69
2022-08-08T00:35:18.466Z,20.63
2022-08-08T00:37:48.223Z,20.58
2022-08-08T00:41:10.839Z,20.52
2022-08-08T00:43:22.278Z,20.47
2022-08-08T00:45:48.168Z,20.43
2022-08-08T00:48:29.947Z,20.37
2022-08-08T00:51:09.694Z,20.29
2022-08-08T00:53:29.570Z,20.22
2022-08-08T00:55:54.660Z,20.17
2022-08-08T00:58:20.589Z,20.14
2022-08-08T01:00:28.493Z,20.10
2022-08-08T01:03:57.271Z,20.06
2022-08-08T01:05:59.450Z,19.98
2022-08-08T01:08:18.768Z,19.93
2022-08-08T01:10:45.710Z,19.88
2022-08-08T01:13:16.498Z,19.84
2022-08-08T01:15:43.692Z,19.80
2022-08-08T01:18:25.415Z,19.74
2022-08-08T01:21:16.668Z,19.68
2022-08-08T01:24:05.843Z,19.62
2022-08-08T01:26:24.100Z,19.59
2022-08-08T01:28:29.656Z,19.55
2022-08-08T01:32:06.550Z,19.51
2022-08-08T01:34:00.961Z,19.45
2022-08-08T01:36:37.127Z,19.41
2022-08-08T01:38:58.916Z,19.35
2022-08-08T01:41:21.734Z,19.31
2022-08-08T01:43:38.866Z,19.27
2022-08-08T01:45:44.572Z,19.23
2022-08-08T01:48:30.977Z,19.19
2022-08-08T01:51:01.757Z,19.15
2022-08-08T01:55:17.848Z,19.09
2022-08-08T01:56:29.613Z,19.03
2022-08-08T01:59:08.036Z,18.97
2022-08-08T02:02:00.060Z,18.93
2022-08-08T02:04:24.510Z,18.87
2022-08-08T02:06:49.609Z,18.85
2022-08-08T02:09:03.543Z,18.80
2022-08-08T02:11:52.929Z,18.77
2022-08-08T02:14:03.105Z,18.72
2022-08-08T02:16:46.758Z,18.69
2022-08-08T02:19:00.874Z,18.65
2022-08-08T02:21:42.716Z,18.63
2022-08-08T02:23:55.603Z,18.58
2022-08-08T02:26:08.311Z,18.56
2022-08-08T02:28:26.052Z,18.53
2022-08-08T02:31:43.527Z,18.49
2022-08-08T02:34:09.840Z,18.45
2022-08-08T02:36:38.555Z,18.40
2022-08-08T02:39:41.178Z,18.39
2022-08-08T02:42:05.729Z,18.35
2022-08-08T02:44:58.062Z,18.33
2022-08-08T02:47:40.071Z,18.28
2022-08-08T02:50:17.578Z,18.25
2022-08-08T02:52:50.440Z,18.22
2022-08-08T02:55:19.784Z,18.18
2022-08-08T02:58:05.413Z,18.14
2022-08-08T03:00:32.184Z,18.10
2022-08-08T03:02:53.727Z,18.06
2022-08-08T03:05:09.460Z,18.04
2022-08-08T03:07:58.866Z,18.00
2022-08-08T03:10:44.068Z,17.94
2022-08-08T03:14:15.781Z,17.90
2022-08-08T03:16:05.559Z,17.87
2022-08-08T03:18:31.256Z,17.84
2022-08-08T03:20:47.011Z,17.80
2022-08-08T03:22:59.625Z,17.79
2022-08-08T03:25:14.771Z,17.77
2022-08-08T03:27:30.074Z,17.73
2022-08-08T03:29:56.416Z,17.72
2022-08-08T03:32:19.788Z,17.69
2022-08-08T03:34:21.656Z,17.66
2022-08-08T03:36:27.882Z,17.64
2022-08-08T03:38:57.778Z,17.61
2022-08-08T03:40:57.202Z,17.59
2022-08-08T03:43:15.718Z,17.57
2022-08-08T03:46:05.676Z,17.55
2022-08-08T03:48:10.154Z,17.52
2022-08-08T03:50:26.713Z,17.50
2022-08-08T03:52:32.111Z,17.48
2022-08-08T03:54:41.094Z,17.46
2022-08-08T03:56:54.198Z,17.42
2022-08-08T03:58:58.261Z,17.40
2022-08-08T04:02:12.698Z,17.37
2022-08-08T04:03:56.971Z,17.34
2022-08-08T04:05:50.082Z,17.31
2022-08-08T04:07:57.941Z,17.29
2022-08-08T04:10:05.374Z,17.27
2022-08-08T04:12:11.770Z,17.26
2022-08-08T04:14:34.683Z,17.23
2022-08-08T04:16:41.073Z,17.20
2022-08-08T04:18:48.919Z,17.20
2022-08-08T04:20:55.929Z,17.17
2022-08-08T04:22:58.942Z,17.16
2022-08-08T04:25:02.446Z,17.16
2022-08-08T04:27:07.577Z,17.13
2022-08-08T04:29:21.458Z,17.12
2022-08-08T04:31:57.345Z,17.11
2022-08-08T04:33:45.248Z,17.09
2022-08-08T04:35:50.640Z,17.07
2022-08-08T04:37:56.035Z,17.07
2022-08-08T04:40:07.849Z,17.07
2022-08-08T04:42:20.439Z,17.06
2022-08-08T04:44:22.278Z,17.05
2022-08-08T04:46:30.954Z,17.05
2022-08-08T04:48:33.510Z,17.05
2022-08-08T04:50:38.529Z,17.05
2022-08-08T04:52:48.562Z,17.05
2022-08-08T04:55:01.861Z,17.07
2022-08-08T04:57:04.001Z,17.08
2022-08-08T04:59:06.163Z,17.09
2022-08-08T05:01:10.882Z,17.09
2022-08-08T05:04:11.518Z,17.11
2022-08-08T05:05:45.440Z,17.10
2022-08-08T05:07:50.082Z,17.12
2022-08-08T05:09:52.322Z,17.13
2022-08-08T05:11:57.519Z,17.14
2022-08-08T05:14:02.853Z,17.18
2022-08-08T05:16:51.606Z,17.21
2022-08-08T05:18:30.420Z,17.23
2022-08-08T05:20:32.707Z,17.24
2022-08-08T05:22:35.849Z,17.28
2022-08-08T05:24:38.643Z,17.31
2022-08-08T05:26:48.721Z,17.33
2022-08-08T05:28:57.485Z,17.36
2022-08-08T05:31:08.526Z,17.38
2022-08-08T05:33:21.336Z,17.45
2022-08-08T05:35:26.433Z,17.49
2022-08-08T05:37:52.319Z,17.53
2022-08-08T05:39:56.870Z,17.57
2022-08-08T05:42:01.055Z,17.65
2022-08-08T05:44:11.871Z,17.73
2022-08-08T05:46:15.000Z,17.81
2022-08-08T05:48:18.268Z,17.89
2022-08-08T05:50:33.505Z,17.99
2022-08-08T05:52:37.267Z,18.07
2022-08-08T05:54:49.664Z,18.18
2022-08-08T05:56:55.650Z,18.29
2022-08-08T05:59:12.735Z,18.40
2022-08-08T06:01:55.953Z,18.53
2022-08-08T06:03:42.046Z,18.66
2022-08-08T06:05:59.560Z,18.78
2022-08-08T06:08:09.423Z,18.92
2022-08-08T06:10:24.639Z,19.09
2022-08-08T06:12:30.129Z,19.24
2022-08-08T06:14:35.157Z,19.42
2022-08-08T06:16:37.849Z,19.59
2022-08-08T06:18:51.401Z,19.80
2022-08-08T06:20:57.682Z,20.00
2022-08-08T06:23:00.615Z,20.21
2022-08-08T06:25:11.118Z,20.43
2022-08-08T06:27:18.590Z,20.67
2022-08-08T06:29:56.730Z,20.89
2022-08-08T06:32:15.346Z,21.17
2022-08-08T06:34:29.468Z,21.43
2022-08-08T06:36:53.092Z,21.72
2022-08-08T06:38:56.026Z,21.98
2022-08-08T06:41:05.035Z,22.23
2022-08-08T06:43:10.160Z,22.49
2022-08-08T06:45:33.950Z,22.77
2022-08-08T06:47:58.258Z,23.00
2022-08-08T06:49:58.739Z,23.26
2022-08-08T06:52:01.407Z,23.47
2022-08-08T06:54:03.955Z,23.68
2022-08-08T06:56:09.453Z,23.86
2022-08-08T06:58:12.104Z,24.05
2022-08-08T07:00:14.612Z,24.24
2022-08-08T07:02:28.996Z,24.42
2022-08-08T07:04:54.568Z,24.61
2022-08-08T07:07:10.510Z,24.80
2022-08-08T07:09:20.931Z,24.98
2022-08-08T07:11:30.330Z,25.15
2022-08-08T07:14:00.670Z,25.33
2022-08-08T07:16:12.222Z,25.49
2022-08-08T07:18:40.671Z,25.64
2022-08-08T07:20:54.268Z,25.78
2022-08-08T07:23:04.650Z,25.91
2022-08-08T07:25:14.626Z,26.03
2022-08-08T07:27:35.137Z,26.16
2022-08-08T07:30:02.534Z,26.29
2022-08-08T07:32:15.844Z,26.42
2022-08-08T07:34:31.829Z,26.54
2022-08-08T07:36:41.933Z,26.65
2022-08-08T07:38:53.347Z,26.76
2022-08-08T07:41:04.485Z,26.86
2022-08-08T07:43:11.853Z,26.98
2022-08-08T07:45:22.675Z,27.09
2022-08-08T07:47:39.367Z,27.21
2022-08-08T07:49:46.245Z,27.32
2022-08-08T07:51:54.116Z,27.42
2022-08-08T07:54:26.684Z,27.54
2022-08-08T07:57:03.728Z,27.68
2022-08-08T07:59:15.780Z,27.79
2022-08-08T08:02:33.667Z,27.90
2022-08-08T08:04:17.730Z,28.00
2022-08-08T08:06:20.634Z,28.12
2022-08-08T08:08:39.454Z,28.24
2022-08-08T08:10:57.250Z,28.37
2022-08-08T08:13:43.044Z,28.47
2022-08-08T08:16:06.986Z,28.63
2022-08-08T08:18:14.280Z,28.75
2022-08-08T08:20:20.700Z,28.88
2022-08-08T08:22:31.700Z,29.00
2022-08-08T08:24:38.302Z,29.13
2022-08-08T08:26:52.477Z,29.26
2022-08-08T08:28:56.426Z,29.39
2022-08-08T08:31:05.002Z,29.51
2022-08-08T08:33:11.125Z,29.64
2022-08-08T08:35:15.284Z,29.76
2022-08-08T08:37:20.465Z,29.88
2022-08-08T08:39:23.925Z,29.99
2022-08-08T08:41:32.515Z,30.11
2022-08-08T08:43:36.542Z,30.23
2022-08-08T08:45:47.686Z,30.37
2022-08-08T08:47:52.901Z,30.48
2022-08-08T08:49:55.258Z,30.60
2022-08-08T08:52:02.036Z,30.71
2022-08-08T08:54:08.048Z,30.82
2022-08-08T08:56:14.538Z,30.93
2022-08-08T08:58:30.447Z,31.05
2022-08-08T09:01:05.365Z,31.17
2022-08-08T09:03:02.206Z,31.28
2022-08-08T09:05:28.837Z,31.39
2022-08-08T09:07:38.716Z,31.49
2022-08-08T09:09:48.303Z,31.60
2022-08-08T09:12:07.890Z,31.72
2022-08-08T09:14:13.177Z,31.84
2022-08-08T09:16:18.937Z,31.94
2022-08-08T09:18:21.753Z,32.05
2022-08-08T09:21:56.670Z,32.15
2022-08-08T09:22:51.610Z,32.20
2022-08-08T09:24:59.122Z,32.28
2022-08-08T09:27:09.263Z,32.36
2022-08-08T09:29:24.978Z,32.43
2022-08-08T09:31:56.687Z,32.48
2022-08-08T09:34:31.261Z,32.54
2022-08-08T09:36:28.475Z,32.60
2022-08-08T09:38:54.621Z,32.66
2022-08-08T09:41:05.071Z,32.75
2022-08-08T09:44:04.685Z,32.80
2022-08-08T09:46:04.119Z,32.87
2022-08-08T09:48:17.755Z,32.93
2022-08-08T09:50:25.720Z,33.00
2022-08-08T09:53:05.633Z,33.07
2022-08-08T09:54:54.574Z,33.16
2022-08-08T09:57:02.675Z,33.25
2022-08-08T09:59:32.147Z,33.35
2022-08-08T10:01:59.992Z,33.44
2022-08-08T10:03:56.122Z,33.52
2022-08-08T10:06:01.348Z,33.61
2022-08-08T10:08:04.616Z,33.69
2022-08-08T10:10:11.573Z,33.78
2022-08-08T10:12:26.932Z,33.84
2022-08-08T10:14:39.383Z,33.92
2022-08-08T10:16:42.592Z,34.00
2022-08-08T10:18:44.211Z,34.04
2022-08-08T10:21:00.507Z,34.10
2022-08-08T10:23:05.474Z,34.17
2022-08-08T10:25:20.321Z,34.22
2022-08-08T10:27:34.086Z,34.27
2022-08-08T10:29:59.881Z,34.33
2022-08-08T10:32:26.338Z,34.41
2022-08-08T10:34:29.709Z,34.38
2022-08-08T10:36:33.926Z,34.40
2022-08-08T10:38:37.914Z,34.43
2022-08-08T10:40:42.853Z,34.41
2022-08-08T10:42:49.686Z,34.44
2022-08-08T10:45:01.016Z,34.42
2022-08-08T10:47:20.568Z,34.41
2022-08-08T10:49:26.817Z,34.42
2022-08-08T10:51:51.006Z,34.42
2022-08-08T10:53:59.567Z,34.48
2022-08-08T10:56:02.264Z,34.51
2022-08-08T10:58:09.237Z,34.49
2022-08-08T11:00:13.958Z,34.48
2022-08-08T11:02:25.357Z,34.51
2022-08-08T11:04:29.888Z,34.51
2022-08-08T11:06:41.674Z,34.54
2022-08-08T11:08:49.205Z,34.61
2022-08-08T11:11:07.958Z,34.65
2022-08-08T11:13:29.834Z,34.74
2022-08-08T11:15:32.247Z,34.77
2022-08-08T11:18:00.688Z,34.79
2022-08-08T11:20:03.997Z,34.85
2022-08-08T11:22:19.051Z,34.92
2022-08-08T11:24:21.897Z,35.00
2022-08-08T11:26:28.001Z,35.05
2022-08-08T11:28:34.665Z,35.10
2022-08-08T11:30:50.563Z,35.12
2022-08-08T11:32:57.423Z,35.15
2022-08-08T11:35:29.327Z,35.13
2022-08-08T11:38:35.293Z,35.12
2022-08-08T11:40:00.180Z,35.15
2022-08-08T11:42:03.009Z,35.20
2022-08-08T11:44:15.787Z,35.26
2022-08-08T11:46:18.685Z,35.28
2022-08-08T11:48:22.292Z,35.29
2022-08-08T11:50:30.703Z,35.21
2022-08-08T11:52:33.586Z,35.21
2022-08-08T11:54:38.370Z,35.24
2022-08-08T11:56:56.009Z,35.27
2022-08-08T11:59:07.949Z,35.32
2022-08-08T12:01:16.159Z,35.36
2022-08-08T12:03:24.605Z,35.36
2022-08-08T12:05:36.036Z,35.39
2022-08-08T12:08:04.867Z,35.40
2022-08-08T12:10:14.869Z,35.44
2022-08-08T12:12:28.353Z,35.46
2022-08-08T12:14:30.671Z,35.47
2022-08-08T12:16:46.600Z,35.49
2022-08-08T12:18:49.973Z,35.52
2022-08-08T12:20:55.263Z,35.53
2022-08-08T12:22:58.572Z,35.56
2022-08-08T12:25:01.068Z,35.61
2022-08-08T12:27:07.130Z,35.64
2022-08-08T12:29:40.172Z,35.67
2022-08-08T12:31:54.250Z,35.70
2022-08-08T12:34:02.053Z,35.70
2022-08-08T12:36:14.686Z,35.69
2022-08-08T12:38:18.373Z,35.72
2022-08-08T12:40:23.545Z,35.78
2022-08-08T12:42:32.801Z,35.79
2022-08-08T12:44:36.774Z,35.77
2022-08-08T12:46:41.161Z,35.72
2022-08-08T12:49:20.691Z,35.61
2022-08-08T12:51:21.833Z,35.63
2022-08-08T12:53:37.938Z,35.64
2022-08-08T12:56:19.515Z,35.61
2022-08-08T12:58:27.249Z,35.57
2022-08-08T13:00:34.055Z,35.58
2022-08-08T13:02:51.526Z,35.61
2022-08-08T13:05:00.284Z,35.60
2022-08-08T13:07:05.271Z,35.55
2022-08-08T13:09:10.502Z,35.54
2022-08-08T13:11:23.045Z,35.52
2022-08-08T13:13:38.005Z,35.53
2022-08-08T13:15:42.125Z,35.51
2022-08-08T13:18:11.583Z,35.49
2022-08-08T13:20:18.512Z,35.47
2022-08-08T13:22:24.574Z,35.41
2022-08-08T13:24:40.797Z,35.34
2022-08-08T13:26:47.209Z,35.31
2022-08-08T13:28:50.329Z,35.32
2022-08-08T13:30:52.371Z,35.32
2022-08-08T13:33:02.326Z,35.27
2022-08-08T13:35:11.726Z,35.19
2022-08-08T13:38:03.150Z,35.19
2022-08-08T13:39:51.824Z,35.18
2022-08-08T13:42:01.367Z,35.17
2022-08-08T13:44:03.527Z,35.14
2022-08-08T13:46:26.434Z,35.17
2022-08-08T13:48:29.205Z,35.17
2022-08-08T13:50:48.943Z,35.17
2022-08-08T13:52:54.881Z,35.20
2022-08-08T13:54:59.133Z,35.23
2022-08-08T13:57:12.359Z,35.23
2022-08-08T13:59:14.785Z,35.27
2022-08-08T14:01:23.329Z,35.30
2022-08-08T14:03:56.068Z,35.26
2022-08-08T14:06:20.532Z,35.29
2022-08-08T14:08:34.852Z,35.29
2022-08-08T14:10:39.470Z,35.27
2022-08-08T14:12:45.177Z,35.26
2022-08-08T14:14:47.736Z,35.25
2022-08-08T14:16:50.868Z,35.22
2022-08-08T14:19:02.917Z,35.17
2022-08-08T14:21:15.003Z,35.14
2022-08-08T14:24:07.480Z,35.10
2022-08-08T14:25:53.983Z,35.08
2022-08-08T14:28:08.316Z,35.04
2022-08-08T14:30:17.803Z,35.00
2022-08-08T14:32:34.756Z,34.98
2022-08-08T14:34:37.205Z,34.93
2022-08-08T14:36:40.699Z,34.88
2022-08-08T14:38:58.673Z,34.80
2022-08-08T14:41:13.097Z,34.74
2022-08-08T14:44:10.661Z,34.69
2022-08-08T14:46:16.299Z,34.63
2022-08-08T14:48:34.156Z,34.62
2022-08-08T14:50:39.188Z,34.56
2022-08-08T14:53:13.499Z,34.45
2022-08-08T14:55:22.153Z,34.41
2022-08-08T14:58:02.493Z,34.34
2022-08-08T14:59:50.212Z,34.27
2022-08-08T15:01:53.368Z,34.19
2022-08-08T15:04:08.304Z,34.17
2022-08-08T15:06:10.933Z,34.12
2022-08-08T15:08:22.159Z,34.05
2022-08-08T15:10:35.660Z,33.97
2022-08-08T15:12:38.595Z,33.92
2022-08-08T15:14:40.508Z,33.85
2022-08-08T15:16:44.249Z,33.81
2022-08-08T15:18:51.340Z,33.74
2022-08-08T15:20:53.554Z,33.68
2022-08-08T15:22:55.523Z,33.62
2022-08-08T15:24:57.742Z,33.59
2022-08-08T15:27:11.901Z,33.53
2022-08-08T15:29:22.330Z,33.51
2022-08-08T15:31:38.788Z,33.48
2022-08-08T15:33:58.514Z,33.46
2022-08-08T15:36:01.548Z,33.41
2022-08-08T15:38:04.673Z,33.40
2022-08-08T15:40:11.299Z,33.40
2022-08-08T15:42:31.726Z,33.38
2022-08-08T15:44:34.430Z,33.35
2022-08-08T15:46:36.118Z,33.34
2022-08-08T15:48:37.847Z,33.31
2022-08-08T15:50:58.729Z,33.27
2022-08-08T15:53:00.586Z,33.24
2022-08-08T15:55:02.319Z,33.21
2022-08-08T15:57:09.494Z,33.20
2022-08-08T15:59:11.510Z,33.15
2022-08-08T16:01:14.482Z,33.13
2022-08-08T16:03:23.598Z,33.10
2022-08-08T16:05:35.782Z,33.09
2022-08-08T16:07:51.296Z,33.01
2022-08-08T16:13:09.301Z,32.97
2022-08-08T16:13:13.745Z,32.93
2022-08-08T16:14:53.648Z,32.88
2022-08-08T16:16:57.408Z,32.82
2022-08-08T16:18:59.269Z,32.77
2022-08-08T16:21:01.370Z,32.70
2022-08-08T16:23:03.479Z,32.64
2022-08-08T16:25:08.860Z,32.57
2022-08-08T16:27:18.094Z,32.51
2022-08-08T16:29:37.079Z,32.45
2022-08-08T16:31:48.743Z,32.38
2022-08-08T16:33:58.312Z,32.32
2022-08-08T16:36:00.999Z,32.25
2022-08-08T16:38:02.826Z,32.23
2022-08-08T16:40:07.165Z,32.39
2022-08-08T16:42:18.004Z,32.30
2022-08-08T16:44:28.168Z,32.20
2022-08-08T16:46:44.454Z,32.12
2022-08-08T16:48:47.868Z,32.08
2022-08-08T16:50:51.894Z,32.03
2022-08-08T16:55:00.955Z,31.99
2022-08-08T16:55:52.390Z,31.93
2022-08-08T16:58:14.658Z,31.89
2022-08-08T17:00:09.112Z,31.87
2022-08-08T17:02:32.628Z,31.81
2022-08-08T17:04:41.173Z,31.77
2022-08-08T17:06:46.681Z,31.72
2022-08-08T17:08:48.662Z,31.69
2022-08-08T17:10:58.196Z,31.66
2022-08-08T17:13:00.467Z,31.59
2022-08-08T17:15:02.372Z,31.55
2022-08-08T17:17:41.730Z,31.51
2022-08-08T17:19:42.491Z,31.46
2022-08-08T17:21:45.518Z,31.42
2022-08-08T17:24:00.730Z,31.39
2022-08-08T17:26:05.161Z,31.38
2022-08-08T17:28:08.279Z,31.36
2022-08-08T17:30:27.206Z,31.31
2022-08-08T17:32:44.562Z,31.27
2022-08-08T17:35:53.341Z,31.24
2022-08-08T17:37:19.021Z,31.21
2022-08-08T17:39:46.076Z,31.19
2022-08-08T17:41:48.540Z,31.15
2022-08-08T17:44:02.365Z,31.12
2022-08-08T17:46:04.825Z,31.10
2022-08-08T17:48:14.906Z,31.07
2022-08-08T17:50:28.286Z,31.04
2022-08-08T17:52:35.474Z,30.98
2022-08-08T17:54:39.142Z,30.95
2022-08-08T17:56:41.320Z,30.91
2022-08-08T17:58:52.246Z,30.88
2022-08-08T18:00:56.399Z,30.85
2022-08-08T18:03:08.465Z,30.82
2022-08-08T18:05:23.081Z,30.77
2022-08-08T18:08:15.417Z,30.73
2022-08-08T18:09:48.449Z,30.69
2022-08-08T18:11:51.180Z,30.67
2022-08-08T18:13:55.922Z,30.62
2022-08-08T18:16:04.375Z,30.59
2022-08-08T18:18:28.848Z,30.56
2022-08-08T18:20:37.248Z,30.54
2022-08-08T18:22:51.544Z,30.48
2022-08-08T18:24:55.934Z,30.45
2022-08-08T18:26:59.364Z,30.42
2022-08-08T18:29:15.444Z,30.39
2022-08-08T18:31:17.671Z,30.36
2022-08-08T18:33:36.487Z,30.33
2022-08-08T18:35:47.459Z,30.30
2022-08-08T18:37:50.156Z,30.25
2022-08-08T18:39:53.329Z,30.23
2022-08-08T18:41:58.250Z,30.20
2022-08-08T18:44:14.229Z,30.18
2022-08-08T18:46:54.273Z,30.15
2022-08-08T18:48:37.698Z,30.13
2022-08-08T18:50:50.163Z,30.10
2022-08-08T18:53:00.140Z,30.07
2022-08-08T18:55:09.836Z,30.02
2022-08-08T18:57:13.574Z,29.98
2022-08-08T18:59:15.503Z,29.96
2022-08-08T19:02:25.771Z,29.92
2022-08-08T19:04:10.397Z,29.87
2022-08-08T19:06:02.080Z,29.83
2022-08-08T19:08:24.969Z,29.78
2022-08-08T19:10:32.832Z,29.75
2022-08-08T19:12:43.545Z,29.72
2022-08-08T19:14:46.670Z,29.68
2022-08-08T19:16:52.445Z,29.64
2022-08-08T19:19:01.965Z,29.61
2022-08-08T19:21:28.948Z,29.57
2022-08-08T19:23:29.314Z,29.51
2022-08-08T19:26:01.283Z,29.48
2022-08-08T19:28:00.347Z,29.41
2022-08-08T19:30:04.726Z,29.40
2022-08-08T19:32:23.078Z,29.34
2022-08-08T19:34:35.785Z,29.29
2022-08-08T19:36:42.425Z,29.25
2022-08-08T19:38:47.215Z,29.22
2022-08-08T19:40:56.063Z,29.18
2022-08-08T19:43:00.958Z,29.14
2022-08-08T19:45:07.242Z,29.12
2022-08-08T19:47:09.447Z,29.06
2022-08-08T19:49:14.278Z,29.02
2022-08-08T19:51:16.576Z,28.97
2022-08-08T19:53:50.879Z,28.91
2022-08-08T19:55:48.556Z,28.86
2022-08-08T19:57:54.511Z,28.81
2022-08-08T19:59:57.498Z,28.79
2022-08-08T20:02:03.547Z,28.73
2022-08-08T20:04:06.632Z,28.70
2022-08-08T20:06:14.629Z,28.68
2022-08-08T20:08:37.488Z,28.63
2022-08-08T20:10:40.326Z,28.57
2022-08-08T20:14:10.339Z,28.55
2022-08-08T20:15:16.323Z,28.49
2022-08-08T20:17:27.967Z,28.44
2022-08-08T20:19:42.127Z,28.38
2022-08-08T20:21:45.142Z,28.34
2022-08-08T20:23:48.034Z,28.30
2022-08-08T20:25:54.376Z,28.25
2022-08-08T20:27:56.234Z,28.21
2022-08-08T20:30:00.975Z,28.16
2022-08-08T20:32:10.181Z,28.12
2022-08-08T20:34:29.369Z,28.04
2022-08-08T20:36:33.358Z,27.98
2022-08-08T20:38:41.565Z,27.94
2022-08-08T20:40:45.949Z,27.91
2022-08-08T20:42:55.063Z,27.86
2022-08-08T20:44:58.635Z,27.81
2022-08-08T20:47:00.253Z,27.77
2022-08-08T20:49:04.989Z,27.73
2022-08-08T20:51:06.624Z,27.68
2022-08-08T20:53:16.384Z,27.65
2022-08-08T20:55:25.952Z,27.61
2022-08-08T20:57:28.045Z,27.57
2022-08-08T20:59:30.120Z,27.53
2022-08-08T21:01:32.105Z,27.47
2022-08-08T21:03:33.684Z,27.44
2022-08-08T21:05:59.408Z,27.38
2022-08-08T21:08:33.739Z,27.34
2022-08-08T21:10:28.305Z,27.30
2022-08-08T21:12:35.390Z,27.26
2022-08-08T21:14:37.107Z,27.21
2022-08-08T21:16:38.728Z,27.19
2022-08-08T21:18:40.388Z,27.15
2022-08-08T21:20:42.970Z,27.12
2022-08-08T21:22:52.116Z,27.05
2022-08-08T21:24:54.681Z,27.01
2022-08-08T21:26:57.675Z,26.98
2022-08-08T21:29:00.922Z,26.96
2022-08-08T21:31:22.732Z,26.94
2022-08-08T21:33:26.179Z,26.89
2022-08-08T21:36:18.358Z,26.88
2022-08-08T21:37:54.093Z,26.83
2022-08-08T21:39:57.349Z,26.82
2022-08-08T21:42:01.807Z,26.80
2022-08-08T21:44:03.708Z,26.77
2022-08-08T21:48:07.424Z,26.73
2022-08-08T21:48:41.122Z,26.71
2022-08-08T21:50:46.099Z,26.69
2022-08-08T21:54:30.979Z,26.67
2022-08-08T21:56:18.307Z,26.67
2022-08-08T21:57:42.062Z,26.65
2022-08-08T22:00:03.546Z,26.63
2022-08-08T22:02:16.056Z,26.60
2022-08-08T22:04:20.885Z,26.60
2022-08-08T22:06:31.122Z,26.58
2022-08-08T22:08:37.322Z,26.55
2022-08-08T22:10:43.617Z,26.54
2022-08-08T22:12:51.216Z,26.52
2022-08-08T22:14:53.728Z,26.49
2022-08-08T22:16:56.233Z,26.45
2022-08-08T22:18:58.017Z,26.43
2022-08-08T22:21:14.020Z,26.38
2022-08-08T22:23:17.470Z,26.34
2022-08-08T22:25:25.213Z,26.28
2022-08-08T22:28:00.679Z,26.24
2022-08-08T22:30:02.669Z,26.18
2022-08-08T22:32:05.449Z,26.13
2022-08-08T22:34:12.528Z,26.07
2022-08-08T22:36:16.445Z,26.04
2022-08-08T22:38:34.052Z,25.98
2022-08-08T22:40:38.514Z,25.94
2022-08-08T22:42:40.526Z,25.90
2022-08-08T22:44:42.494Z,25.85
2022-08-08T22:46:45.048Z,25.80
2022-08-08T22:48:50.510Z,25.76
2022-08-08T22:50:56.289Z,25.71
2022-08-08T22:54:31.459Z,25.66
2022-08-08T22:55:28.460Z,25.59
2022-08-08T22:57:44.293Z,25.54
2022-08-08T22:59:58.765Z,25.48
2022-08-08T23:02:04.485Z,25.41
2022-08-08T23:04:14.624Z,25.37
2022-08-08T23:06:34.127Z,25.31
2022-08-08T23:08:44.291Z,25.25
2022-08-08T23:11:05.900Z,25.19
2022-08-08T23:13:14.534Z,25.12
2022-08-08T23:16:37.932Z,25.06
2022-08-08T23:17:46.526Z,24.99
2022-08-08T23:19:55.938Z,24.93
2022-08-08T23:21:57.551Z,24.86
2022-08-08T23:23:59.394Z,24.80
2022-08-08T23:26:01.036Z,24.76
2022-08-08T23:28:03.709Z,24.69
2022-08-08T23:30:09.261Z,24.62
2022-08-08T23:32:11.280Z,24.55
2022-08-08T23:34:15.824Z,24.51
2022-08-08T23:36:24.254Z,24.44
2022-08-08T23:38:28.424Z,24.38
2022-08-08T23:40:31.034Z,24.32
2022-08-08T23:42:32.685Z,24.26
2022-08-08T23:44:39.416Z,24.19
2022-08-08T23:49:00.668Z,24.13
2022-08-08T23:49:20.307Z,24.05
2022-08-08T23:51:41.849Z,23.98
2022-08-08T23:53:55.968Z,23.89
2022-08-08T23:56:06.477Z,23.80
2022-08-08T23:58:32.030Z,23.75
